CheckWX is a tool to help pilots better visualize weather data.  It is not intended as a substitute for an official pre-flight weather briefing.

01:15:24 UTC

KTPH METAR
Tonopah Airport
Tonopah, Nevada, USA
Current

19 mins ago

KTPH 250056Z AUTO 35010KT 10SM CLR 11/M07 A3007 RMK AO2 SLP171 T01061067
Observed
Jan-25 @ 00:56 UTC
Wind
  • 350° at 10 KTS
Visibility
10 SM
Flight Rules
VFR
Cloud Levels
  • Clear skies
Temperature
11°C / 52°F
Dewpoint
-7°C / 19°F
Humidity
28%
Altimeter
30.07" Hg
Pressure
1018.32 hPa
Previous

1 hour ago

KTPH 242356Z AUTO 32010KT 10SM CLR 13/M05 A3007 RMK AO2 SLP161 T01331050 10139 20083 56002
Observed
Jan-24 @ 23:56 UTC
Wind
  • 320° at 10 KTS
Visibility
10 SM
Flight Rules
VFR
Cloud Levels
  • Clear skies
Temperature
13°C / 55°F
Dewpoint
-5°C / 23°F
Humidity
28%
Altimeter
30.07" Hg
Pressure
1018.32 hPa
Previous

2 hours ago

KTPH 242256Z AUTO 32012KT 10SM CLR 13/M06 A3007 RMK AO2 SLP163 T01331056
Observed
Jan-24 @ 22:56 UTC
Wind
  • 320° at 12 KTS
Visibility
10 SM
Flight Rules
VFR
Cloud Levels
  • Clear skies
Temperature
13°C / 55°F
Dewpoint
-6°C / 21°F
Humidity
26%
Altimeter
30.07" Hg
Pressure
1018.32 hPa